createdAt,value
2018-03-21T00:03:30.189Z,81.00
2018-03-21T00:07:32.737Z,80.90
2018-03-21T00:11:36.027Z,83.20
2018-03-21T00:15:38.574Z,83.20
2018-03-21T00:19:41.130Z,84.10
2018-03-21T00:23:44.098Z,83.60
2018-03-21T00:27:46.641Z,83.30
2018-03-21T00:31:49.279Z,83.00
2018-03-21T00:35:51.809Z,82.90
2018-03-21T00:39:54.692Z,82.40
2018-03-21T00:43:57.205Z,82.70
2018-03-21T00:48:00.624Z,83.30
2018-03-21T00:52:03.185Z,83.30
2018-03-21T00:56:05.734Z,84.30
2018-03-21T01:00:08.258Z,84.60
2018-03-21T01:04:11.657Z,85.40
2018-03-21T01:08:14.225Z,85.40
2018-03-21T01:12:16.789Z,84.60
2018-03-21T01:16:22.055Z,84.80
2018-03-21T01:20:25.372Z,83.80
2018-03-21T01:24:28.660Z,86.50
2018-03-21T01:28:31.504Z,86.50
2018-03-21T01:32:51.558Z,86.80
2018-03-21T01:36:54.126Z,86.70
2018-03-21T01:40:56.636Z,86.40
2018-03-21T01:44:59.176Z,86.40
2018-03-21T01:49:01.729Z,85.90
2018-03-21T01:53:10.268Z,87.30
2018-03-21T01:57:12.795Z,86.60
2018-03-21T02:01:15.375Z,86.70
2018-03-21T02:05:17.904Z,87.40
2018-03-21T02:09:20.452Z,87.70
2018-03-21T02:13:22.997Z,87.70
2018-03-21T02:17:25.576Z,87.10
2018-03-21T02:21:31.373Z,87.70
2018-03-21T02:25:33.924Z,88.20
2018-03-21T02:29:37.224Z,88.90
2018-03-21T02:33:39.774Z,88.90
2018-03-21T02:37:42.329Z,89.10
2018-03-21T02:41:44.872Z,89.10
2018-03-21T02:45:47.404Z,89.20
2018-03-21T02:49:49.966Z,89.70
2018-03-21T02:53:53.249Z,90.00
2018-03-21T02:57:55.901Z,89.90
2018-03-21T03:01:58.435Z,89.10
2018-03-21T03:06:01.080Z,89.40
2018-03-21T03:10:03.606Z,89.70
2018-03-21T03:14:06.164Z,89.60
2018-03-21T03:18:08.690Z,90.20
2018-03-21T03:22:11.430Z,90.20
2018-03-21T03:26:13.962Z,90.30
2018-03-21T03:30:16.530Z,90.40
2018-03-21T03:34:19.043Z,90.30
2018-03-21T03:38:21.609Z,90.50
2018-03-21T03:42:24.123Z,90.40
2018-03-21T03:46:26.673Z,90.60
2018-03-21T03:50:29.961Z,90.40
2018-03-21T03:54:32.615Z,90.40
2018-03-21T03:58:35.135Z,90.30
2018-03-21T04:02:37.685Z,90.30
2018-03-21T04:06:40.198Z,90.70
2018-03-21T04:10:42.833Z,90.80
2018-03-21T04:14:46.125Z,91.10
2018-03-21T04:18:48.768Z,91.50
2018-03-21T04:22:51.292Z,91.00
2018-03-21T04:26:53.862Z,90.90
2018-03-21T04:30:57.149Z,90.90
2018-03-21T04:34:59.692Z,90.90
2018-03-21T04:39:02.704Z,90.90
2018-03-21T04:43:06.024Z,90.90
2018-03-21T04:47:10.195Z,91.00
2018-03-21T04:51:12.741Z,90.80
2018-03-21T04:55:19.152Z,91.30
2018-03-21T04:59:21.788Z,91.30
2018-03-21T05:03:24.314Z,91.30
2018-03-21T05:07:27.644Z,91.60
2018-03-21T05:11:30.956Z,91.80
2018-03-21T05:15:33.514Z,91.80
2018-03-21T05:19:36.036Z,91.60
2018-03-21T05:23:38.953Z,91.50
2018-03-21T05:27:42.267Z,91.70
2018-03-21T05:31:46.116Z,91.40
2018-03-21T05:35:59.390Z,91.60
2018-03-21T05:40:01.958Z,91.60
2018-03-21T05:44:04.481Z,91.60
2018-03-21T05:48:11.796Z,91.70
2018-03-21T05:52:15.232Z,91.70
2018-03-21T05:56:17.780Z,91.50
2018-03-21T06:00:20.306Z,91.70
2018-03-21T06:04:22.856Z,91.50
2018-03-21T06:08:25.382Z,91.50
2018-03-21T06:12:27.954Z,91.50
2018-03-21T06:16:31.248Z,91.40
2018-03-21T06:20:33.868Z,91.40
2018-03-21T06:24:36.494Z,91.00
2018-03-21T06:28:39.813Z,90.90
2018-03-21T06:32:42.333Z,90.90
2018-03-21T06:36:45.670Z,90.90
2018-03-21T06:40:56.257Z,90.80
2018-03-21T06:44:58.804Z,90.90
2018-03-21T06:49:01.524Z,90.90
2018-03-21T06:53:04.157Z,90.70
2018-03-21T06:57:06.674Z,90.10
2018-03-21T07:01:10.001Z,90.10
2018-03-21T07:05:16.334Z,89.00
2018-03-21T07:09:19.041Z,89.00
2018-03-21T07:13:21.570Z,89.30
2018-03-21T07:17:24.207Z,88.60
2018-03-21T07:21:27.688Z,88.10
2018-03-21T07:25:30.294Z,88.10
2018-03-21T07:29:32.822Z,87.20
2018-03-21T07:33:35.509Z,86.60
2018-03-21T07:37:39.033Z,85.00
2018-03-21T07:41:41.605Z,84.70
2018-03-21T07:45:45.077Z,84.90
2018-03-21T07:49:47.718Z,84.50
2018-03-21T07:53:52.949Z,84.50
2018-03-21T07:57:55.497Z,85.20
2018-03-21T08:01:58.037Z,83.20
2018-03-21T08:06:00.612Z,82.40
2018-03-21T08:10:03.183Z,82.00
2018-03-21T08:14:05.751Z,81.30
2018-03-21T08:22:37.145Z,79.10
2018-03-21T08:26:40.421Z,64.50
2018-03-21T08:30:44.070Z,64.30
2018-03-21T08:34:46.598Z,53.40
2018-03-21T08:38:54.892Z,47.30
2018-03-21T08:42:57.421Z,45.10
2018-03-21T08:47:00.049Z,42.50
2018-03-21T08:51:02.568Z,38.90
2018-03-21T08:55:05.884Z,38.80
2018-03-21T08:59:09.193Z,36.70
2018-03-21T09:03:11.773Z,36.70
2018-03-21T09:07:16.232Z,35.40
2018-03-21T09:11:27.254Z,40.90
2018-03-21T09:15:29.772Z,37.20
2018-03-21T09:19:33.197Z,35.50
2018-03-21T09:23:36.712Z,34.70
2018-03-21T09:27:39.272Z,34.30
2018-03-21T09:31:41.801Z,34.30
2018-03-21T09:35:44.369Z,31.70
2018-03-21T09:39:46.887Z,30.80
2018-03-21T09:43:49.589Z,29.60
2018-03-21T09:47:52.163Z,28.20
2018-03-21T09:51:55.535Z,31.30
2018-03-21T09:56:01.748Z,31.20
2018-03-21T10:00:04.424Z,33.90
2018-03-21T10:04:06.964Z,31.20
2018-03-21T10:08:09.684Z,29.50
2018-03-21T10:12:12.225Z,30.00
2018-03-21T10:16:14.790Z,29.40
2018-03-21T10:20:17.319Z,28.10
2018-03-21T10:24:20.808Z,26.40
2018-03-21T10:28:23.993Z,26.30
2018-03-21T10:32:26.666Z,26.70
2018-03-21T10:36:29.193Z,26.70
2018-03-21T10:40:32.541Z,27.70
2018-03-21T10:44:35.052Z,27.60
2018-03-21T10:48:38.012Z,28.80
2018-03-21T10:52:40.540Z,29.80
2018-03-21T10:56:43.970Z,33.90
2018-03-21T11:00:47.280Z,31.90
2018-03-21T11:04:49.835Z,31.90
2018-03-21T11:08:52.357Z,32.40
2018-03-21T11:13:01.288Z,31.90
2018-03-21T11:17:03.800Z,30.90
2018-03-21T11:21:06.357Z,34.60
2018-03-21T11:25:09.665Z,30.20
2018-03-21T11:29:12.219Z,30.10
2018-03-21T11:33:14.737Z,28.70
2018-03-21T11:37:17.408Z,30.80
2018-03-21T11:41:20.701Z,35.80
2018-03-21T11:45:23.271Z,35.80
2018-03-21T11:49:25.821Z,32.20
2018-03-21T11:53:28.398Z,33.10
2018-03-21T11:57:34.115Z,31.10
2018-03-21T12:01:37.433Z,34.40
2018-03-21T12:05:46.035Z,34.20
2018-03-21T12:09:48.615Z,33.10
2018-03-21T12:13:52.099Z,33.20
2018-03-21T12:17:54.661Z,34.50
2018-03-21T12:21:57.189Z,36.60
2018-03-21T12:25:59.757Z,36.30
2018-03-21T12:30:03.438Z,36.20
2018-03-21T12:34:06.286Z,36.60
2018-03-21T12:38:09.582Z,34.40
2018-03-21T12:42:12.171Z,34.40
2018-03-21T12:46:14.713Z,37.30
2018-03-21T12:50:17.604Z,37.90
2018-03-21T12:54:20.133Z,37.30
2018-03-21T12:58:23.568Z,39.50
2018-03-21T13:02:26.872Z,39.10
2018-03-21T13:06:38.447Z,39.10
2018-03-21T13:10:40.980Z,39.80
2018-03-21T13:14:43.555Z,41.00
2018-03-21T13:18:48.053Z,42.50
2018-03-21T13:22:51.657Z,40.10
2018-03-21T13:26:59.694Z,41.20
2018-03-21T13:31:02.276Z,41.20
2018-03-21T13:35:04.818Z,41.10
2018-03-21T13:39:07.637Z,39.10
2018-03-21T13:43:10.161Z,40.30
2018-03-21T13:47:12.728Z,38.30
2018-03-21T13:51:15.255Z,39.70
2018-03-21T13:55:18.987Z,39.40
2018-03-21T13:59:21.528Z,39.30
2018-03-21T14:03:25.872Z,39.50
2018-03-21T14:07:29.046Z,39.50
2018-03-21T14:11:31.592Z,39.10
2018-03-21T14:15:42.640Z,39.20
2018-03-21T14:19:52.456Z,39.10
2018-03-21T14:23:55.029Z,40.20
2018-03-21T14:27:59.643Z,41.10
2018-03-21T14:32:02.244Z,42.50
2018-03-21T14:36:04.864Z,43.10
2018-03-21T14:40:08.360Z,44.40
2018-03-21T14:44:20.735Z,42.70
2018-03-21T14:48:25.045Z,47.00
2018-03-21T14:52:31.886Z,47.00
2018-03-21T14:56:35.164Z,41.20
2018-03-21T15:00:37.757Z,41.10
2018-03-21T15:04:40.305Z,42.80
2018-03-21T15:08:43.838Z,41.90
2018-03-21T15:12:46.377Z,40.60
2018-03-21T15:16:48.933Z,43.20
2018-03-21T15:20:53.485Z,49.50
2018-03-21T15:25:02.002Z,43.10
2018-03-21T15:29:05.564Z,40.60
2018-03-21T15:33:10.049Z,41.00
2018-03-21T15:37:12.693Z,42.80
2018-03-21T15:41:18.016Z,45.10
2018-03-21T15:45:22.315Z,43.40
2018-03-21T15:49:25.875Z,43.30
2018-03-21T15:53:28.408Z,42.60
2018-03-21T15:57:34.414Z,40.80
2018-03-21T16:01:36.938Z,40.00
2018-03-21T16:05:39.491Z,41.10
2018-03-21T16:09:42.984Z,44.00
2018-03-21T16:13:45.612Z,42.80
2018-03-21T16:17:48.149Z,43.50
2018-03-21T16:21:51.469Z,43.70
2018-03-21T16:25:54.758Z,44.50
2018-03-21T16:29:57.305Z,44.40
2018-03-21T16:33:59.916Z,43.60
2018-03-21T16:38:02.529Z,43.40
2018-03-21T16:42:05.071Z,44.30
2018-03-21T16:46:13.432Z,43.60
2018-03-21T16:50:15.957Z,43.40
2018-03-21T16:54:19.606Z,42.30
2018-03-21T16:58:24.097Z,42.20
2018-03-21T17:02:26.699Z,43.00
2018-03-21T17:06:31.153Z,44.40
2018-03-21T17:10:35.687Z,45.90
2018-03-21T17:14:38.213Z,47.40
2018-03-21T17:18:47.253Z,49.60
2018-03-21T17:22:50.501Z,52.30
2018-03-21T17:26:53.990Z,52.30
2018-03-21T17:30:57.583Z,53.30
2018-03-21T17:35:00.151Z,53.70
2018-03-21T17:39:03.768Z,54.50
2018-03-21T17:43:07.152Z,56.60
2018-03-21T17:47:10.478Z,58.20
2018-03-21T17:51:19.521Z,60.90
2018-03-21T17:55:23.434Z,62.40
2018-03-21T17:59:28.945Z,62.00
2018-03-21T18:03:31.472Z,62.90
2018-03-21T18:07:35.074Z,64.20
2018-03-21T18:11:37.593Z,65.10
2018-03-21T18:15:40.308Z,65.20
2018-03-21T18:19:43.620Z,67.90
2018-03-21T18:23:46.950Z,69.40
2018-03-21T18:27:50.248Z,70.30
2018-03-21T18:31:53.519Z,70.20
2018-03-21T18:35:56.101Z,71.80
2018-03-21T18:40:00.718Z,73.20
2018-03-21T18:44:04.241Z,73.20
2018-03-21T18:48:06.836Z,73.90
2018-03-21T18:52:10.393Z,74.40
2018-03-21T18:56:13.028Z,75.70
2018-03-21T19:00:15.557Z,75.60
2018-03-21T19:04:19.144Z,76.40
2018-03-21T19:08:21.711Z,76.30
2018-03-21T19:12:26.314Z,77.20
2018-03-21T19:16:33.077Z,78.50
2018-03-21T19:20:35.809Z,78.50
2018-03-21T19:24:38.344Z,78.80
2018-03-21T19:28:41.757Z,79.60
2018-03-21T19:32:44.297Z,79.50
2018-03-21T19:36:47.175Z,79.30
2018-03-21T19:40:49.710Z,79.30
2018-03-21T19:44:52.300Z,79.70
2018-03-21T19:48:54.850Z,80.40
2018-03-21T19:52:57.433Z,80.20
2018-03-21T19:57:00.011Z,79.50
2018-03-21T20:01:03.373Z,80.90
2018-03-21T20:05:09.301Z,80.80
2018-03-21T20:09:17.389Z,81.00
2018-03-21T20:13:21.933Z,80.80
2018-03-21T20:17:24.884Z,82.10
2018-03-21T20:21:27.405Z,82.80
2018-03-21T20:25:30.033Z,83.10
2018-03-21T20:29:32.557Z,82.60
2018-03-21T20:33:36.287Z,83.60
2018-03-21T20:37:38.933Z,82.80
2018-03-21T20:41:41.501Z,83.90
2018-03-21T20:45:44.779Z,84.30
2018-03-21T20:49:47.478Z,84.30
2018-03-21T20:53:50.005Z,83.70
2018-03-21T20:57:52.675Z,84.60
2018-03-21T21:01:55.197Z,83.90
2018-03-21T21:06:02.247Z,84.20
2018-03-21T21:10:05.552Z,85.20
2018-03-21T21:14:08.223Z,85.20
2018-03-21T21:18:11.670Z,83.70
2018-03-21T21:22:14.242Z,83.90
2018-03-21T21:26:23.234Z,83.90
2018-03-21T21:30:25.784Z,83.80
2018-03-21T21:34:29.085Z,82.70
2018-03-21T21:38:32.037Z,82.70
2018-03-21T21:42:35.501Z,83.20
2018-03-21T21:46:38.418Z,83.20
2018-03-21T21:50:40.946Z,84.30
2018-03-21T21:54:43.489Z,85.50
2018-03-21T21:58:46.030Z,85.80
2018-03-21T22:02:48.633Z,85.50
2018-03-21T22:06:51.182Z,84.70
2018-03-21T22:10:54.502Z,84.00
2018-03-21T22:14:57.798Z,86.40
2018-03-21T22:19:00.352Z,85.80
2018-03-21T22:23:03.632Z,87.20
2018-03-21T22:27:06.565Z,87.20
2018-03-21T22:31:09.084Z,87.80
2018-03-21T22:35:12.727Z,87.70
2018-03-21T22:39:15.270Z,87.70
2018-03-21T22:43:17.828Z,87.20
2018-03-21T22:47:21.113Z,87.70
2018-03-21T22:51:23.649Z,87.70
2018-03-21T22:55:26.939Z,88.30
2018-03-21T22:59:30.204Z,88.30
2018-03-21T23:03:33.495Z,88.40
2018-03-21T23:07:36.040Z,88.40
2018-03-21T23:11:38.578Z,87.80
2018-03-21T23:15:41.127Z,88.60
2018-03-21T23:19:43.644Z,88.00
2018-03-21T23:23:46.951Z,90.00
2018-03-21T23:27:50.245Z,90.20
2018-03-21T23:31:52.889Z,90.10
2018-03-21T23:35:56.178Z,89.90
2018-03-21T23:39:58.850Z,89.80
2018-03-21T23:44:01.385Z,90.00
2018-03-21T23:48:03.959Z,89.60
2018-03-21T23:52:06.486Z,89.50
2018-03-21T23:56:09.038Z,90.20
